Time;durP1;ratioP1;P1;durP2;ratioP2;P2;SDS_P1;SDS_P2;PMS_P1;PMS_P2;Temp;Humidity;BMP_temperature;BMP_pressure;BME280_temperature;BME280_humidity;BME280_pressure;Samples;Min_cycle;Max_cycle;Signal;HPM_P1;HPM_P2
2022/06/07 00:02:29;;;;;;;4.97;3.63;;;;;;;;;;7376870;19;20148;-80
2022/06/07 00:04:55;;;;;;;4.40;3.97;;;;;;;;;;7381299;19;20182;-79
2022/06/07 00:07:22;;;;;;;5.30;4.80;;;;;;;;;;7365571;19;20846;-81
2022/06/07 00:09:47;;;;;;;4.75;4.30;;;;;;;;;;7375671;19;20538;-81
2022/06/07 00:12:14;;;;;;;4.88;3.95;;;;;;;;;;7376339;19;20135;-79
2022/06/07 00:14:40;;;;;;;4.47;3.97;;;;;;;;;;7370937;19;20164;-80
2022/06/07 00:17:06;;;;;;;4.07;3.63;;;;;;;;;;7370656;19;20172;-78
2022/06/07 00:19:33;;;;;;;5.35;4.10;;;;;;;;;;7373039;19;20128;-79
2022/06/07 00:21:59;;;;;;;4.70;4.28;;;;;;;;;;7374269;19;20152;-79
2022/06/07 00:24:25;;;;;;;3.95;3.65;;;;;;;;;;7374819;19;20133;-80
2022/06/07 00:26:51;;;;;;;4.10;3.78;;;;;;;;;;7365536;19;20199;-81
2022/06/07 00:29:18;;;;;;;4.75;3.78;;;;;;;;;;7386815;19;20156;-80
2022/06/07 00:31:44;;;;;;;6.68;3.97;;;;;;;;;;7379504;19;20133;-79
2022/06/07 00:34:11;;;;;;;5.18;3.45;;;;;;;;;;7378364;19;20117;-80
2022/06/07 00:36:37;;;;;;;4.18;3.70;;;;;;;;;;7376217;19;20751;-80
2022/06/07 00:39:03;;;;;;;3.90;3.60;;;;;;;;;;7378166;19;20178;-79
2022/06/07 00:41:29;;;;;;;4.55;3.90;;;;;;;;;;7376753;19;20153;-80
2022/06/07 00:44:22;;;;;;;4.18;3.80;;;;;;;;;;7381125;19;20148;-79
2022/06/07 00:47:09;;;;;;;4.80;4.18;;;;;;;;;;7376778;19;20172;-81
2022/06/07 00:49:49;;;;;;;4.68;4.07;;;;;;;;;;7377284;19;20164;-80
2022/06/07 00:52:17;;;;;;;4.47;4.00;;;;;;;;;;7375475;19;20157;-80
2022/06/07 00:54:43;;;;;;;4.32;3.90;;;;;;;;;;7372309;19;20152;-82
2022/06/07 00:57:09;;;;;;;5.22;4.20;;;;;;;;;;7380849;19;20153;-80
2022/06/07 00:59:36;;;;;;;4.68;4.28;;;;;;;;;;7379344;19;20168;-80
2022/06/07 01:02:02;;;;;;;6.25;4.57;;;;;;;;;;7372364;19;20129;-83
2022/06/07 01:04:28;;;;;;;5.82;4.70;;;;;;;;;;7375407;19;20494;-80
2022/06/07 01:12:25;;;;;;;5.93;4.38;;;;;;;;;;7370416;19;20149;-79
2022/06/07 01:14:52;;;;;;;5.25;4.70;;;;;;;;;;7377605;19;20132;-81
2022/06/07 01:17:19;;;;;;;5.88;4.10;;;;;;;;;;7378347;19;20175;-78
2022/06/07 01:19:45;;;;;;;6.15;4.25;;;;;;;;;;7381324;19;20149;-79
2022/06/07 01:22:11;;;;;;;7.25;5.75;;;;;;;;;;7386370;19;20128;-80
2022/06/07 01:24:37;;;;;;;7.38;4.18;;;;;;;;;;7383537;19;20153;-79
2022/06/07 01:27:04;;;;;;;4.07;3.60;;;;;;;;;;7375307;19;20519;-79
2022/06/07 01:29:30;;;;;;;3.55;3.25;;;;;;;;;;7390227;19;20524;-91
2022/06/07 01:31:56;;;;;;;4.45;3.10;;;;;;;;;;7399380;19;20125;-90
2022/06/07 01:34:22;;;;;;;4.88;3.42;;;;;;;;;;7399319;19;20148;-91
2022/06/07 01:36:48;;;;;;;3.92;3.35;;;;;;;;;;7399030;19;20200;-90
2022/06/07 01:41:59;;;;;;;4.30;3.08;;;;;;;;;;7396843;19;20147;-89
2022/06/07 01:44:25;;;;;;;5.43;3.03;;;;;;;;;;7399672;19;20140;-91
2022/06/07 01:46:51;;;;;;;5.20;3.50;;;;;;;;;;7406329;19;20145;-92
2022/06/07 01:49:17;;;;;;;5.40;3.20;;;;;;;;;;7403565;19;20155;-91
2022/06/07 01:51:44;;;;;;;5.50;2.90;;;;;;;;;;7398569;19;20484;-93
2022/06/07 01:54:11;;;;;;;5.70;3.38;;;;;;;;;;7398689;19;20145;-92
2022/06/07 01:56:37;;;;;;;3.38;3.08;;;;;;;;;;7399886;19;20238;-90
2022/06/07 01:59:03;;;;;;;5.65;3.72;;;;;;;;;;7395699;19;20199;-91
2022/06/07 02:01:29;;;;;;;4.47;3.33;;;;;;;;;;7396511;19;20177;-92
2022/06/07 02:03:55;;;;;;;5.43;3.17;;;;;;;;;;7411521;19;20149;-92
2022/06/07 02:06:22;;;;;;;3.30;3.00;;;;;;;;;;7428223;19;20141;-91
2022/06/07 02:08:48;;;;;;;3.80;3.00;;;;;;;;;;7430728;19;20145;-89
2022/06/07 02:11:15;;;;;;;3.20;2.90;;;;;;;;;;7432217;19;20136;-89
2022/06/07 02:13:42;;;;;;;4.27;3.17;;;;;;;;;;7425699;19;20144;-90
2022/06/07 02:16:08;;;;;;;5.23;2.87;;;;;;;;;;7426825;19;20141;-90
2022/06/07 02:18:34;;;;;;;3.23;2.93;;;;;;;;;;7391470;19;20176;-90
2022/06/07 02:21:00;;;;;;;4.40;3.00;;;;;;;;;;7396002;19;20129;-89
2022/06/07 02:23:27;;;;;;;4.17;2.80;;;;;;;;;;7393637;19;20204;-91
2022/06/07 02:25:57;;;;;;;4.03;3.10;;;;;;;;;;7393829;19;20129;-89
2022/06/07 02:28:24;;;;;;;3.37;3.07;;;;;;;;;;7397810;19;20228;-90
2022/06/07 02:30:52;;;;;;;4.30;3.00;;;;;;;;;;7397066;19;20742;-89
2022/06/07 02:33:18;;;;;;;4.70;3.10;;;;;;;;;;7395919;19;20555;-92
2022/06/07 02:35:45;;;;;;;2.80;2.60;;;;;;;;;;7390489;19;20619;-94
2022/06/07 02:38:11;;;;;;;3.20;2.53;;;;;;;;;;7392836;19;20248;-92
2022/06/07 02:40:37;;;;;;;5.20;3.70;;;;;;;;;;7392748;19;20193;-91
2022/06/07 02:43:04;;;;;;;4.18;3.58;;;;;;;;;;7388772;19;20569;-91
2022/06/07 02:45:30;;;;;;;3.60;3.30;;;;;;;;;;7394928;19;20186;-90
2022/06/07 02:47:56;;;;;;;3.33;2.97;;;;;;;;;;7393791;19;20168;-91
2022/06/07 02:50:23;;;;;;;3.60;2.97;;;;;;;;;;7397230;19;20153;-92
2022/06/07 02:52:49;;;;;;;3.70;2.85;;;;;;;;;;7396450;19;20133;-90
2022/06/07 02:55:16;;;;;;;4.17;3.47;;;;;;;;;;7392475;19;20156;-93
2022/06/07 02:57:42;;;;;;;5.70;3.30;;;;;;;;;;7393802;19;20241;-92
2022/06/07 03:00:09;;;;;;;3.70;3.13;;;;;;;;;;7392220;19;20703;-93
2022/06/07 03:02:35;;;;;;;2.87;2.67;;;;;;;;;;7388889;19;20597;-92
2022/06/07 03:05:01;;;;;;;4.13;3.03;;;;;;;;;;7390910;19;20143;-92
2022/06/07 03:07:27;;;;;;;3.10;2.80;;;;;;;;;;7394810;19;20144;-91
2022/06/07 03:09:53;;;;;;;5.43;2.83;;;;;;;;;;7396747;19;20140;-92
2022/06/07 03:12:19;;;;;;;3.67;3.37;;;;;;;;;;7397439;19;20152;-92
2022/06/07 03:14:45;;;;;;;3.57;2.90;;;;;;;;;;7396713;19;20194;-90
2022/06/07 03:17:11;;;;;;;3.17;2.87;;;;;;;;;;7397639;19;20132;-91
2022/06/07 03:19:37;;;;;;;4.40;3.00;;;;;;;;;;7393086;19;20188;-92
2022/06/07 03:22:03;;;;;;;3.00;2.80;;;;;;;;;;7394395;19;20628;-92
2022/06/07 03:24:29;;;;;;;3.40;3.10;;;;;;;;;;7393591;19;20610;-92
2022/06/07 03:26:55;;;;;;;3.73;3.00;;;;;;;;;;7415113;19;20145;-92
2022/06/07 03:29:21;;;;;;;4.63;2.90;;;;;;;;;;7424583;19;20180;-91
2022/06/07 03:31:48;;;;;;;5.10;3.20;;;;;;;;;;7423891;19;20144;-92
2022/06/07 03:34:14;;;;;;;3.20;2.90;;;;;;;;;;7423239;19;20194;-93
2022/06/07 03:36:40;;;;;;;3.77;2.60;;;;;;;;;;7419162;19;20153;-92
2022/06/07 03:39:08;;;;;;;4.43;2.63;;;;;;;;;;7411853;19;20160;-92
2022/06/07 03:41:34;;;;;;;5.30;3.23;;;;;;;;;;7398629;19;20137;-93
2022/06/07 03:44:00;;;;;;;4.23;3.23;;;;;;;;;;7396687;19;20150;-93
2022/06/07 03:46:28;;;;;;;3.40;2.90;;;;;;;;;;7397243;19;20157;-91
2022/06/07 03:48:55;;;;;;;3.70;2.87;;;;;;;;;;7414009;19;20169;-92
2022/06/07 03:51:22;;;;;;;4.90;2.83;;;;;;;;;;7425485;19;20121;-92
2022/06/07 03:53:48;;;;;;;5.30;3.87;;;;;;;;;;7425862;19;20153;-91
2022/06/07 03:56:15;;;;;;;3.50;2.63;;;;;;;;;;7425755;19;20145;-92
2022/06/07 03:58:41;;;;;;;3.03;2.73;;;;;;;;;;7423151;19;20176;-93
2022/06/07 04:01:08;;;;;;;3.80;2.93;;;;;;;;;;7423221;19;20132;-92
2022/06/07 04:03:34;;;;;;;3.70;2.50;;;;;;;;;;7418137;19;20193;-91
2022/06/07 04:06:01;;;;;;;3.23;2.93;;;;;;;;;;7418784;19;20129;-92
2022/06/07 04:08:27;;;;;;;3.10;2.60;;;;;;;;;;7426496;19;20181;-91
2022/06/07 04:10:54;;;;;;;3.67;2.83;;;;;;;;;;7426325;19;20129;-91
2022/06/07 04:13:21;;;;;;;3.33;2.90;;;;;;;;;;7424938;19;20148;-90
2022/06/07 04:15:48;;;;;;;4.17;3.00;;;;;;;;;;7424505;19;20140;-91
2022/06/07 04:18:14;;;;;;;3.83;2.60;;;;;;;;;;7427818;19;20160;-93
2022/06/07 04:20:40;;;;;;;2.60;2.40;;;;;;;;;;7418018;19;20159;-92
2022/06/07 04:23:07;;;;;;;2.60;2.40;;;;;;;;;;7429297;19;20624;-92
2022/06/07 04:25:39;;;;;;;3.97;2.57;;;;;;;;;;7426699;19;20145;-92
2022/06/07 04:28:05;;;;;;;6.20;2.30;;;;;;;;;;7426723;19;20236;-92
2022/06/07 04:30:31;;;;;;;2.87;2.00;;;;;;;;;;7425992;19;20149;-92
2022/06/07 04:32:57;;;;;;;3.13;2.67;;;;;;;;;;7416370;19;20125;-92
2022/06/07 04:35:23;;;;;;;2.20;2.03;;;;;;;;;;7416346;19;20133;-93
2022/06/07 04:37:50;;;;;;;2.00;1.90;;;;;;;;;;7417399;19;20176;-93
2022/06/07 04:40:16;;;;;;;2.40;2.20;;;;;;;;;;7419802;19;20125;-92
2022/06/07 04:42:43;;;;;;;2.30;2.10;;;;;;;;;;7415747;19;20160;-92
2022/06/07 04:45:11;;;;;;;4.20;2.23;;;;;;;;;;7418185;19;20162;-93
2022/06/07 04:47:37;;;;;;;2.35;2.15;;;;;;;;;;7422480;19;20172;-93
2022/06/07 04:50:04;;;;;;;2.30;2.10;;;;;;;;;;7421761;19;20154;-93
2022/06/07 04:52:30;;;;;;;2.93;2.10;;;;;;;;;;7420367;19;20141;-93
2022/06/07 04:54:56;;;;;;;3.60;2.50;;;;;;;;;;7431036;19;20140;-93
2022/06/07 04:57:22;;;;;;;2.57;2.37;;;;;;;;;;7428922;19;20149;-94
2022/06/07 04:59:48;;;;;;;2.43;2.23;;;;;;;;;;7432599;19;20148;-94
2022/06/07 05:02:14;;;;;;;2.23;2.03;;;;;;;;;;7429691;19;20145;-92
2022/06/07 05:04:40;;;;;;;2.43;1.87;;;;;;;;;;7427794;19;20145;-93
2022/06/07 05:07:06;;;;;;;3.23;2.40;;;;;;;;;;7425771;19;20130;-92
2022/06/07 05:09:32;;;;;;;2.30;2.10;;;;;;;;;;7427047;19;20179;-94
2022/06/07 05:11:58;;;;;;;4.60;1.87;;;;;;;;;;7430634;19;20158;-92
2022/06/07 05:14:25;;;;;;;2.33;2.00;;;;;;;;;;7428748;19;20125;-94
2022/06/07 05:16:51;;;;;;;2.30;2.10;;;;;;;;;;7426997;19;20141;-93
2022/06/07 05:19:18;;;;;;;2.00;1.88;;;;;;;;;;7427106;19;20571;-94
2022/06/07 05:21:44;;;;;;;2.38;2.20;;;;;;;;;;7427509;19;20160;-93
2022/06/07 05:24:10;;;;;;;2.30;1.93;;;;;;;;;;7429684;19;20166;-93
2022/06/07 05:26:37;;;;;;;4.28;1.98;;;;;;;;;;7429551;19;20154;-93
2022/06/07 05:29:04;;;;;;;2.00;1.85;;;;;;;;;;7415425;19;20165;-92
2022/06/07 05:31:30;;;;;;;2.10;1.90;;;;;;;;;;7427093;19;20157;-92
2022/06/07 05:33:56;;;;;;;5.13;2.00;;;;;;;;;;7418972;19;20141;-93
2022/06/07 05:36:22;;;;;;;2.90;2.00;;;;;;;;;;7419945;19;20152;-92
2022/06/07 05:38:48;;;;;;;3.38;2.17;;;;;;;;;;7418147;19;20512;-92
2022/06/07 05:41:17;;;;;;;3.35;2.10;;;;;;;;;;7413847;19;20169;-94
2022/06/07 05:43:43;;;;;;;2.25;2.05;;;;;;;;;;7413841;19;20148;-92
2022/06/07 05:46:09;;;;;;;2.00;1.90;;;;;;;;;;7399776;19;20155;-90
2022/06/07 05:48:36;;;;;;;2.33;2.10;;;;;;;;;;7407548;19;20165;-92
2022/06/07 05:51:02;;;;;;;2.38;2.15;;;;;;;;;;7410046;19;20240;-92
2022/06/07 05:53:28;;;;;;;3.42;1.92;;;;;;;;;;7398344;19;20144;-93
2022/06/07 05:55:54;;;;;;;7.45;2.05;;;;;;;;;;7402367;19;20133;-93
2022/06/07 05:58:20;;;;;;;8.45;2.00;;;;;;;;;;7393888;19;20184;-92
2022/06/07 06:00:47;;;;;;;2.22;2.03;;;;;;;;;;7394111;19;20168;-87
2022/06/07 06:03:13;;;;;;;2.35;2.20;;;;;;;;;;7393405;19;20153;-87
2022/06/07 06:05:46;;;;;;;2.30;2.10;;;;;;;;;;7388127;19;20125;-85
2022/06/07 06:11:07;;;;;;;4.43;2.28;;;;;;;;;;7392633;19;20671;-88
2022/06/07 06:13:42;;;;;;;2.67;1.98;;;;;;;;;;7402302;19;20156;-95
2022/06/07 06:16:10;;;;;;;3.28;1.98;;;;;;;;;;7402055;19;20152;-93
2022/06/07 06:18:39;;;;;;;2.40;2.00;;;;;;;;;;7391371;19;20487;-91
2022/06/07 06:21:06;;;;;;;2.20;2.10;;;;;;;;;;7396308;19;20156;-93
2022/06/07 06:23:32;;;;;;;2.13;1.92;;;;;;;;;;7399183;19;20117;-92
2022/06/07 06:25:58;;;;;;;2.70;2.10;;;;;;;;;;7398850;19;20605;-91
2022/06/07 06:28:25;;;;;;;3.65;2.30;;;;;;;;;;7396700;19;20584;-91
2022/06/07 06:30:51;;;;;;;3.15;2.03;;;;;;;;;;7397412;19;20624;-92
2022/06/07 06:33:18;;;;;;;4.65;2.20;;;;;;;;;;7404886;19;20148;-95
2022/06/07 06:35:51;;;;;;;2.20;2.00;;;;;;;;;;7400546;19;20133;-95
2022/06/07 06:38:18;;;;;;;3.60;2.40;;;;;;;;;;7397205;19;20169;-94
2022/06/07 06:40:45;;;;;;;4.97;2.22;;;;;;;;;;7405844;19;20136;-95
2022/06/07 06:43:11;;;;;;;2.15;2.00;;;;;;;;;;7416576;19;20145;-95
2022/06/07 06:45:38;;;;;;;2.92;1.90;;;;;;;;;;7412885;19;20133;-96
2022/06/07 06:48:04;;;;;;;4.10;2.00;;;;;;;;;;7409148;19;20169;-95
2022/06/07 06:50:30;;;;;;;1.92;1.80;;;;;;;;;;7413419;19;20141;-96
2022/06/07 06:52:56;;;;;;;2.60;1.95;;;;;;;;;;7410016;19;20137;-96
2022/06/07 06:55:22;;;;;;;2.50;2.30;;;;;;;;;;7411459;19;20141;-96
2022/06/07 06:57:49;;;;;;;2.47;1.70;;;;;;;;;;7409749;19;20161;-96
2022/06/07 07:00:15;;;;;;;3.53;2.30;;;;;;;;;;7416899;19;20125;-95
2022/06/07 07:02:41;;;;;;;2.88;2.58;;;;;;;;;;7410932;19;20137;-95
2022/06/07 07:05:08;;;;;;;2.15;1.92;;;;;;;;;;7409918;19;20140;-95
2022/06/07 07:07:35;;;;;;;2.00;1.80;;;;;;;;;;7413468;19;20137;-95
2022/06/07 07:10:01;;;;;;;2.78;2.10;;;;;;;;;;7411298;19;20155;-95
2022/06/07 07:12:27;;;;;;;2.03;1.85;;;;;;;;;;7414621;19;20125;-95
2022/06/07 07:14:53;;;;;;;3.05;1.95;;;;;;;;;;7411059;19;20245;-95
2022/06/07 07:17:19;;;;;;;2.40;2.20;;;;;;;;;;7418820;19;20165;-94
2022/06/07 07:19:45;;;;;;;2.20;2.00;;;;;;;;;;7419770;19;20767;-94
2022/06/07 07:22:11;;;;;;;3.30;2.00;;;;;;;;;;7412094;19;20129;-94
2022/06/07 07:24:37;;;;;;;4.25;2.08;;;;;;;;;;7417803;19;20144;-94
2022/06/07 07:27:03;;;;;;;2.80;2.00;;;;;;;;;;7419439;19;20125;-96
2022/06/07 07:29:29;;;;;;;2.13;1.83;;;;;;;;;;7422841;19;20168;-95
2022/06/07 07:31:55;;;;;;;3.67;2.08;;;;;;;;;;7416408;19;20185;-95
2022/06/07 07:34:21;;;;;;;1.90;1.70;;;;;;;;;;7424046;19;20166;-96
2022/06/07 07:36:49;;;;;;;2.30;1.60;;;;;;;;;;7422643;19;20183;-94
2022/06/07 07:39:15;;;;;;;2.25;1.80;;;;;;;;;;7420326;19;20202;-94
2022/06/07 07:41:42;;;;;;;2.17;1.95;;;;;;;;;;7425692;19;20145;-94
2022/06/07 07:44:11;;;;;;;1.95;1.67;;;;;;;;;;7425501;19;20125;-92
2022/06/07 07:46:38;;;;;;;2.35;2.10;;;;;;;;;;7424533;19;20137;-92
2022/06/07 07:49:04;;;;;;;4.07;1.80;;;;;;;;;;7423996;19;20820;-93
2022/06/07 07:51:35;;;;;;;1.83;1.70;;;;;;;;;;7424982;19;20149;-94
2022/06/07 07:54:02;;;;;;;2.60;2.40;;;;;;;;;;7425859;19;20140;-94
2022/06/07 07:56:28;;;;;;;2.05;1.85;;;;;;;;;;7423722;19;20146;-92
2022/06/07 07:58:55;;;;;;;3.13;1.85;;;;;;;;;;7420840;19;20168;-94
2022/06/07 08:01:22;;;;;;;2.05;1.90;;;;;;;;;;7422951;19;20168;-92
2022/06/07 08:03:48;;;;;;;3.72;2.13;;;;;;;;;;7423920;19;20141;-92
2022/06/07 08:06:17;;;;;;;2.33;1.88;;;;;;;;;;7423354;19;20129;-93
2022/06/07 08:08:43;;;;;;;2.65;1.70;;;;;;;;;;7418141;19;20160;-93
2022/06/07 08:11:09;;;;;;;3.95;2.10;;;;;;;;;;7421314;19;20157;-94
2022/06/07 08:13:36;;;;;;;1.70;1.60;;;;;;;;;;7421929;19;20137;-94
2022/06/07 08:16:03;;;;;;;4.07;1.77;;;;;;;;;;7421825;19;20148;-93
2022/06/07 08:18:29;;;;;;;3.17;1.63;;;;;;;;;;7421824;19;20191;-92
2022/06/07 08:20:59;;;;;;;4.18;2.13;;;;;;;;;;7422934;19;20133;-93
2022/06/07 08:23:25;;;;;;;3.10;2.40;;;;;;;;;;7422659;19;20196;-93
2022/06/07 08:25:51;;;;;;;2.30;2.10;;;;;;;;;;7421861;19;20160;-93
2022/06/07 08:28:17;;;;;;;2.05;1.80;;;;;;;;;;7421551;19;20164;-93
2022/06/07 08:30:45;;;;;;;2.00;1.88;;;;;;;;;;7421821;19;20133;-93
2022/06/07 08:38:41;;;;;;;2.13;1.60;;;;;;;;;;7422524;19;20143;-95
2022/06/07 08:41:08;;;;;;;3.20;2.17;;;;;;;;;;7423424;19;20125;-94
2022/06/07 08:43:34;;;;;;;2.97;1.98;;;;;;;;;;7417239;19;20156;-95
2022/06/07 08:46:00;;;;;;;2.33;2.20;;;;;;;;;;7415993;19;20149;-94
2022/06/07 08:48:28;;;;;;;4.35;1.88;;;;;;;;;;7420870;19;20195;-94
2022/06/07 08:51:13;;;;;;;2.22;1.80;;;;;;;;;;7415856;19;20152;-95
2022/06/07 08:53:41;;;;;;;2.15;1.73;;;;;;;;;;7415568;19;20162;-94
2022/06/07 08:56:13;;;;;;;1.40;1.30;;;;;;;;;;7414653;19;20141;-95
2022/06/07 08:58:41;;;;;;;1.75;1.40;;;;;;;;;;7411143;19;20217;-95
2022/06/07 09:01:23;;;;;;;1.85;1.40;;;;;;;;;;7412705;19;20178;-94
2022/06/07 09:04:08;;;;;;;1.52;1.42;;;;;;;;;;7406451;19;20125;-94
2022/06/07 09:06:35;;;;;;;1.95;1.45;;;;;;;;;;7409068;19;20136;-95
2022/06/07 09:09:01;;;;;;;1.30;1.20;;;;;;;;;;7407673;19;20632;-94
2022/06/07 09:14:31;;;;;;;2.13;1.50;;;;;;;;;;7425574;19;20132;-93
2022/06/07 09:16:58;;;;;;;3.25;1.70;;;;;;;;;;7416505;19;20144;-94
2022/06/07 09:19:26;;;;;;;1.88;1.38;;;;;;;;;;7419407;19;20149;-94
2022/06/07 09:21:53;;;;;;;2.05;1.33;;;;;;;;;;7413041;19;20516;-94
2022/06/07 09:24:25;;;;;;;1.33;1.23;;;;;;;;;;7411328;19;20153;-93
2022/06/07 09:26:51;;;;;;;1.38;1.27;;;;;;;;;;7402296;19;20519;-94
2022/06/07 09:29:20;;;;;;;2.78;1.33;;;;;;;;;;7399235;19;20172;-93
2022/06/07 09:31:46;;;;;;;1.17;1.10;;;;;;;;;;7408141;19;20140;-94
2022/06/07 09:34:21;;;;;;;1.25;1.15;;;;;;;;;;7406794;19;20152;-93
2022/06/07 09:36:48;;;;;;;1.38;1.27;;;;;;;;;;7413193;19;20117;-93
2022/06/07 09:39:14;;;;;;;4.93;1.70;;;;;;;;;;7412616;19;20164;-92
2022/06/07 09:41:44;;;;;;;2.55;1.70;;;;;;;;;;7412529;19;20153;-94
2022/06/07 09:44:15;;;;;;;1.48;1.38;;;;;;;;;;7411835;19;20156;-93
2022/06/07 09:46:43;;;;;;;1.50;1.40;;;;;;;;;;7410666;19;20136;-94
2022/06/07 09:49:24;;;;;;;1.73;1.25;;;;;;;;;;7409512;19;20603;-94
2022/06/07 09:51:49;;;;;;;1.80;1.10;;;;;;;;;;7412118;19;20501;-94
2022/06/07 09:54:17;;;;;;;2.83;1.95;;;;;;;;;;7409949;19;20182;-93
2022/06/07 09:56:43;;;;;;;2.17;1.98;;;;;;;;;;7413987;19;20494;-94
2022/06/07 09:59:28;;;;;;;3.55;1.90;;;;;;;;;;7410298;19;20180;-94
2022/06/07 10:02:01;;;;;;;3.10;2.00;;;;;;;;;;7406766;19;20168;-92
2022/06/07 10:04:51;;;;;;;2.65;2.05;;;;;;;;;;7399381;19;20145;-93
2022/06/07 10:07:17;;;;;;;2.40;2.20;;;;;;;;;;7402977;19;20644;-93
2022/06/07 10:10:04;;;;;;;2.35;2.15;;;;;;;;;;7400830;19;20176;-93
2022/06/07 10:12:33;;;;;;;3.10;2.72;;;;;;;;;;7398933;19;20467;-94
2022/06/07 10:15:10;;;;;;;2.40;2.20;;;;;;;;;;7404418;19;20169;-93
2022/06/07 10:17:54;;;;;;;2.78;2.00;;;;;;;;;;7403313;19;20514;-92
2022/06/07 10:20:28;;;;;;;2.95;2.20;;;;;;;;;;7408216;19;20258;-94
2022/06/07 10:23:05;;;;;;;2.13;1.90;;;;;;;;;;7406221;19;20124;-94
2022/06/07 10:25:37;;;;;;;3.05;2.33;;;;;;;;;;7405273;19;20208;-92
2022/06/07 10:28:11;;;;;;;2.22;2.10;;;;;;;;;;7400992;19;20228;-93
2022/06/07 10:30:38;;;;;;;2.38;2.00;;;;;;;;;;7410788;19;20169;-94
2022/06/07 10:33:13;;;;;;;1.77;1.67;;;;;;;;;;7407123;19;20216;-93
2022/06/07 10:35:44;;;;;;;2.08;1.98;;;;;;;;;;7405647;19;20155;-93
2022/06/07 10:38:11;;;;;;;2.03;1.83;;;;;;;;;;7405033;19;20176;-94
2022/06/07 10:40:55;;;;;;;1.90;1.80;;;;;;;;;;7414171;19;20157;-93
2022/06/07 10:43:47;;;;;;;5.50;2.10;;;;;;;;;;7407507;19;20189;-94
2022/06/07 10:46:15;;;;;;;2.20;1.90;;;;;;;;;;7408075;19;20181;-93
2022/06/07 10:48:46;;;;;;;2.08;1.88;;;;;;;;;;7404977;19;20168;-93
2022/06/07 10:54:03;;;;;;;2.28;1.70;;;;;;;;;;7411901;19;20157;-91
2022/06/07 10:56:34;;;;;;;2.97;1.70;;;;;;;;;;7401576;19;20167;-93
2022/06/07 10:59:03;;;;;;;3.60;2.00;;;;;;;;;;7413377;19;20156;-94
2022/06/07 11:02:08;;;;;;;2.40;2.20;;;;;;;;;;7408884;19;20153;-94
2022/06/07 11:10:25;;;;;;;2.25;2.05;;;;;;;;;;7399824;19;20149;-95
2022/06/07 11:12:51;;;;;;;1.85;1.75;;;;;;;;;;7394205;19;20145;-94
2022/06/07 11:15:44;;;;;;;2.08;1.80;;;;;;;;;;7400360;19;20148;-94
2022/06/07 11:18:13;;;;;;;2.28;1.55;;;;;;;;;;7394190;19;20188;-94
2022/06/07 11:20:48;;;;;;;1.65;1.55;;;;;;;;;;7402688;19;20175;-93
2022/06/07 11:23:16;;;;;;;2.25;1.60;;;;;;;;;;7395382;19;20612;-92
2022/06/07 11:26:01;;;;;;;1.75;1.63;;;;;;;;;;7396873;19;20132;-94
2022/06/07 11:28:29;;;;;;;2.63;2.20;;;;;;;;;;7395602;19;20192;-92
2022/06/07 11:30:59;;;;;;;2.75;1.83;;;;;;;;;;7395611;19;20144;-93
2022/06/07 11:33:42;;;;;;;6.60;2.35;;;;;;;;;;7396248;19;20214;-93
2022/06/07 11:36:14;;;;;;;4.47;2.45;;;;;;;;;;7397904;19;20212;-94
2022/06/07 11:38:56;;;;;;;4.07;2.30;;;;;;;;;;7395731;19;20180;-92
2022/06/07 11:41:37;;;;;;;3.22;2.60;;;;;;;;;;7401305;19;20149;-94
2022/06/07 11:44:12;;;;;;;2.88;2.28;;;;;;;;;;7407287;19;20125;-94
2022/06/07 11:46:59;;;;;;;3.20;2.90;;;;;;;;;;7407485;19;20148;-94
2022/06/07 11:49:27;;;;;;;2.72;2.40;;;;;;;;;;7410184;19;20188;-92
2022/06/07 11:51:55;;;;;;;2.10;1.90;;;;;;;;;;7410802;19;20172;-94
2022/06/07 11:54:32;;;;;;;2.45;2.00;;;;;;;;;;7416974;19;20144;-92
2022/06/07 11:57:02;;;;;;;3.60;2.10;;;;;;;;;;7400830;19;20155;-94
2022/06/07 11:59:43;;;;;;;2.35;2.15;;;;;;;;;;7411435;19;20171;-94
2022/06/07 12:02:18;;;;;;;3.97;2.50;;;;;;;;;;7410414;19;20534;-92
2022/06/07 12:04:44;;;;;;;2.90;2.10;;;;;;;;;;7410412;19;20160;-93
2022/06/07 12:07:10;;;;;;;2.38;1.77;;;;;;;;;;7412517;19;20149;-93
2022/06/07 12:09:36;;;;;;;2.88;1.83;;;;;;;;;;7413753;19;20174;-93
2022/06/07 12:12:22;;;;;;;1.92;1.80;;;;;;;;;;7419852;19;20160;-93
2022/06/07 12:14:51;;;;;;;3.75;1.80;;;;;;;;;;7423158;19;20149;-95
2022/06/07 12:17:31;;;;;;;3.67;1.40;;;;;;;;;;7424581;19;20141;-93
2022/06/07 12:19:57;;;;;;;2.20;1.38;;;;;;;;;;7423070;19;20124;-93
2022/06/07 12:22:24;;;;;;;1.50;1.40;;;;;;;;;;7421552;19;20150;-94
2022/06/07 12:24:58;;;;;;;1.83;1.55;;;;;;;;;;7423264;19;20161;-95
2022/06/07 12:27:24;;;;;;;2.50;1.67;;;;;;;;;;7422468;19;20126;-93
2022/06/07 12:29:53;;;;;;;2.33;1.98;;;;;;;;;;7422472;19;20166;-93
2022/06/07 12:32:21;;;;;;;5.63;2.47;;;;;;;;;;7421572;19;20145;-92
2022/06/07 12:34:47;;;;;;;6.38;2.45;;;;;;;;;;7421943;19;20159;-93
2022/06/07 12:37:14;;;;;;;4.70;2.60;;;;;;;;;;7424765;19;20161;-93
2022/06/07 12:39:54;;;;;;;2.85;1.85;;;;;;;;;;7414137;19;20176;-94
2022/06/07 12:42:21;;;;;;;2.47;2.17;;;;;;;;;;7417960;19;20243;-94
2022/06/07 12:44:52;;;;;;;1.90;1.80;;;;;;;;;;7417739;19;20152;-92
2022/06/07 12:47:32;;;;;;;2.05;1.77;;;;;;;;;;7412502;19;20149;-93
2022/06/07 12:49:58;;;;;;;1.92;1.83;;;;;;;;;;7412777;19;20148;-93
2022/06/07 12:52:27;;;;;;;1.75;1.60;;;;;;;;;;7406419;19;20173;-93
2022/06/07 12:54:55;;;;;;;3.08;1.83;;;;;;;;;;7388018;19;20152;-93
2022/06/07 12:57:29;;;;;;;1.90;1.70;;;;;;;;;;7390283;19;20137;-92
2022/06/07 13:00:13;;;;;;;3.47;1.75;;;;;;;;;;7389022;19;20187;-92
2022/06/07 13:02:42;;;;;;;1.75;1.50;;;;;;;;;;7383923;19;20144;-93
2022/06/07 13:05:10;;;;;;;3.00;1.52;;;;;;;;;;7390970;19;20160;-91
2022/06/07 13:07:44;;;;;;;3.33;2.05;;;;;;;;;;7387726;19;20149;-92
2022/06/07 13:10:12;;;;;;;1.58;1.48;;;;;;;;;;7393879;19;20185;-92
2022/06/07 13:12:42;;;;;;;2.60;1.60;;;;;;;;;;7404027;19;20156;-93
2022/06/07 13:15:13;;;;;;;3.03;1.80;;;;;;;;;;7411653;19;20157;-92
